sensor_id;sensor_type;location;lat;lon;timestamp;P1;durP1;ratioP1;P2;durP2;ratioP2
305;SDS011;137;48.578;9.180;2024-01-27T00:01:25;7.80;;;4.10;;
305;SDS011;137;48.578;9.180;2024-01-27T00:03:51;3.90;;;3.50;;
305;SDS011;137;48.578;9.180;2024-01-27T00:06:20;4.37;;;3.97;;
305;SDS011;137;48.578;9.180;2024-01-27T00:08:47;4.13;;;3.67;;
305;SDS011;137;48.578;9.180;2024-01-27T00:11:13;3.37;;;2.00;;
305;SDS011;137;48.578;9.180;2024-01-27T00:13:40;3.07;;;2.13;;
305;SDS011;137;48.578;9.180;2024-01-27T00:16:07;6.30;;;2.00;;
305;SDS011;137;48.578;9.180;2024-01-27T00:18:35;3.77;;;2.83;;
305;SDS011;137;48.578;9.180;2024-01-27T00:21:03;3.10;;;2.23;;
305;SDS011;137;48.578;9.180;2024-01-27T00:23:32;6.07;;;3.10;;
305;SDS011;137;48.578;9.180;2024-01-27T00:25:59;4.60;;;3.07;;
305;SDS011;137;48.578;9.180;2024-01-27T00:28:26;3.47;;;2.63;;
305;SDS011;137;48.578;9.180;2024-01-27T00:30:53;4.40;;;2.97;;
305;SDS011;137;48.578;9.180;2024-01-27T00:33:20;4.80;;;3.50;;
305;SDS011;137;48.578;9.180;2024-01-27T00:35:47;3.73;;;3.37;;
305;SDS011;137;48.578;9.180;2024-01-27T00:38:14;10.10;;;2.93;;
305;SDS011;137;48.578;9.180;2024-01-27T00:40:42;4.70;;;3.20;;
305;SDS011;137;48.578;9.180;2024-01-27T00:43:09;5.13;;;3.00;;
305;SDS011;137;48.578;9.180;2024-01-27T00:45:35;3.90;;;2.70;;
305;SDS011;137;48.578;9.180;2024-01-27T00:48:02;2.50;;;2.30;;
305;SDS011;137;48.578;9.180;2024-01-27T00:50:29;5.00;;;2.30;;
305;SDS011;137;48.578;9.180;2024-01-27T00:52:56;2.43;;;1.60;;
305;SDS011;137;48.578;9.180;2024-01-27T00:55:23;3.20;;;2.67;;
305;SDS011;137;48.578;9.180;2024-01-27T00:57:51;3.40;;;1.70;;
305;SDS011;137;48.578;9.180;2024-01-27T01:00:19;3.57;;;2.30;;
305;SDS011;137;48.578;9.180;2024-01-27T01:02:45;2.50;;;1.53;;
305;SDS011;137;48.578;9.180;2024-01-27T01:05:12;4.90;;;1.77;;
305;SDS011;137;48.578;9.180;2024-01-27T01:07:39;3.07;;;2.20;;
305;SDS011;137;48.578;9.180;2024-01-27T01:10:06;2.63;;;1.93;;
305;SDS011;137;48.578;9.180;2024-01-27T01:12:33;3.07;;;1.50;;
305;SDS011;137;48.578;9.180;2024-01-27T01:15:01;2.77;;;2.00;;
305;SDS011;137;48.578;9.180;2024-01-27T01:17:28;1.90;;;1.40;;
305;SDS011;137;48.578;9.180;2024-01-27T01:19:55;1.90;;;1.70;;
305;SDS011;137;48.578;9.180;2024-01-27T01:22:22;3.27;;;1.97;;
305;SDS011;137;48.578;9.180;2024-01-27T01:24:48;3.10;;;1.90;;
305;SDS011;137;48.578;9.180;2024-01-27T01:27:15;4.60;;;2.80;;
305;SDS011;137;48.578;9.180;2024-01-27T01:29:44;2.63;;;1.80;;
305;SDS011;137;48.578;9.180;2024-01-27T01:32:12;3.47;;;2.60;;
305;SDS011;137;48.578;9.180;2024-01-27T01:34:38;3.10;;;1.90;;
305;SDS011;137;48.578;9.180;2024-01-27T01:37:05;6.03;;;2.40;;
305;SDS011;137;48.578;9.180;2024-01-27T01:39:32;3.83;;;1.80;;
305;SDS011;137;48.578;9.180;2024-01-27T01:41:58;2.00;;;1.60;;
305;SDS011;137;48.578;9.180;2024-01-27T01:44:26;3.43;;;2.00;;
305;SDS011;137;48.578;9.180;2024-01-27T01:46:56;3.07;;;1.53;;
305;SDS011;137;48.578;9.180;2024-01-27T01:49:24;2.37;;;1.70;;
305;SDS011;137;48.578;9.180;2024-01-27T01:51:51;2.30;;;1.60;;
305;SDS011;137;48.578;9.180;2024-01-27T01:54:17;1.90;;;1.53;;
305;SDS011;137;48.578;9.180;2024-01-27T01:56:45;2.40;;;1.50;;
305;SDS011;137;48.578;9.180;2024-01-27T01:59:11;2.67;;;1.60;;
305;SDS011;137;48.578;9.180;2024-01-27T02:01:38;2.30;;;1.83;;
305;SDS011;137;48.578;9.180;2024-01-27T02:04:05;2.17;;;1.57;;
305;SDS011;137;48.578;9.180;2024-01-27T02:06:33;3.33;;;1.70;;
305;SDS011;137;48.578;9.180;2024-01-27T02:09:00;1.57;;;1.47;;
305;SDS011;137;48.578;9.180;2024-01-27T02:11:27;2.23;;;2.03;;
305;SDS011;137;48.578;9.180;2024-01-27T02:13:54;2.30;;;1.53;;
305;SDS011;137;48.578;9.180;2024-01-27T02:16:21;1.77;;;1.30;;
305;SDS011;137;48.578;9.180;2024-01-27T02:18:48;2.97;;;1.67;;
305;SDS011;137;48.578;9.180;2024-01-27T02:21:14;2.33;;;1.50;;
305;SDS011;137;48.578;9.180;2024-01-27T02:23:43;4.27;;;1.60;;
305;SDS011;137;48.578;9.180;2024-01-27T02:26:11;2.43;;;1.90;;
305;SDS011;137;48.578;9.180;2024-01-27T02:28:37;1.73;;;1.63;;
305;SDS011;137;48.578;9.180;2024-01-27T02:31:04;2.17;;;1.63;;
305;SDS011;137;48.578;9.180;2024-01-27T02:33:31;5.97;;;1.50;;
305;SDS011;137;48.578;9.180;2024-01-27T02:35:57;3.43;;;1.50;;
305;SDS011;137;48.578;9.180;2024-01-27T02:38:24;3.10;;;1.70;;
305;SDS011;137;48.578;9.180;2024-01-27T02:40:51;4.10;;;1.90;;
305;SDS011;137;48.578;9.180;2024-01-27T02:43:20;1.50;;;1.40;;
305;SDS011;137;48.578;9.180;2024-01-27T02:45:47;2.03;;;1.50;;
305;SDS011;137;48.578;9.180;2024-01-27T02:48:13;3.13;;;1.30;;
305;SDS011;137;48.578;9.180;2024-01-27T02:50:40;1.50;;;1.33;;
305;SDS011;137;48.578;9.180;2024-01-27T02:53:07;5.33;;;2.80;;
305;SDS011;137;48.578;9.180;2024-01-27T02:55:33;3.93;;;2.10;;
305;SDS011;137;48.578;9.180;2024-01-27T02:58:00;1.80;;;1.40;;
305;SDS011;137;48.578;9.180;2024-01-27T03:00:28;4.60;;;2.03;;
305;SDS011;137;48.578;9.180;2024-01-27T03:02:55;3.10;;;1.73;;
305;SDS011;137;48.578;9.180;2024-01-27T03:05:23;2.43;;;1.50;;
305;SDS011;137;48.578;9.180;2024-01-27T03:07:50;1.70;;;1.40;;
305;SDS011;137;48.578;9.180;2024-01-27T03:10:16;3.17;;;1.67;;
305;SDS011;137;48.578;9.180;2024-01-27T03:12:43;2.33;;;1.97;;
305;SDS011;137;48.578;9.180;2024-01-27T03:15:10;4.17;;;2.40;;
305;SDS011;137;48.578;9.180;2024-01-27T03:17:38;7.10;;;1.83;;
305;SDS011;137;48.578;9.180;2024-01-27T03:20:06;3.30;;;1.87;;
305;SDS011;137;48.578;9.180;2024-01-27T03:22:34;2.67;;;2.00;;
305;SDS011;137;48.578;9.180;2024-01-27T03:25:01;3.00;;;1.70;;
305;SDS011;137;48.578;9.180;2024-01-27T03:27:28;2.67;;;1.77;;
305;SDS011;137;48.578;9.180;2024-01-27T03:32:25;2.90;;;1.93;;
305;SDS011;137;48.578;9.180;2024-01-27T03:34:53;2.70;;;1.93;;
305;SDS011;137;48.578;9.180;2024-01-27T03:37:21;4.13;;;2.13;;
305;SDS011;137;48.578;9.180;2024-01-27T03:39:48;3.50;;;2.00;;
305;SDS011;137;48.578;9.180;2024-01-27T03:42:14;5.10;;;2.20;;
305;SDS011;137;48.578;9.180;2024-01-27T03:44:41;4.13;;;2.57;;
305;SDS011;137;48.578;9.180;2024-01-27T03:47:08;3.90;;;2.70;;
305;SDS011;137;48.578;9.180;2024-01-27T03:49:34;2.70;;;1.90;;
305;SDS011;137;48.578;9.180;2024-01-27T03:52:03;3.20;;;2.37;;
305;SDS011;137;48.578;9.180;2024-01-27T03:54:30;5.03;;;2.50;;
305;SDS011;137;48.578;9.180;2024-01-27T03:56:57;2.47;;;2.17;;
305;SDS011;137;48.578;9.180;2024-01-27T03:59:24;3.53;;;2.37;;
305;SDS011;137;48.578;9.180;2024-01-27T04:01:50;2.57;;;2.10;;
305;SDS011;137;48.578;9.180;2024-01-27T04:04:17;7.70;;;2.20;;
305;SDS011;137;48.578;9.180;2024-01-27T04:06:44;2.40;;;1.83;;
305;SDS011;137;48.578;9.180;2024-01-27T04:09:12;2.60;;;2.40;;
305;SDS011;137;48.578;9.180;2024-01-27T04:11:39;2.70;;;2.10;;
305;SDS011;137;48.578;9.180;2024-01-27T04:14:06;3.40;;;2.40;;
305;SDS011;137;48.578;9.180;2024-01-27T04:16:33;2.50;;;2.17;;
305;SDS011;137;48.578;9.180;2024-01-27T04:19:00;2.90;;;2.20;;
305;SDS011;137;48.578;9.180;2024-01-27T04:21:26;5.03;;;2.20;;
305;SDS011;137;48.578;9.180;2024-01-27T04:23:53;2.93;;;2.60;;
305;SDS011;137;48.578;9.180;2024-01-27T04:26:21;3.40;;;2.40;;
305;SDS011;137;48.578;9.180;2024-01-27T04:28:48;6.53;;;2.20;;
305;SDS011;137;48.578;9.180;2024-01-27T04:31:15;4.80;;;2.17;;
305;SDS011;137;48.578;9.180;2024-01-27T04:33:42;3.00;;;2.03;;
305;SDS011;137;48.578;9.180;2024-01-27T04:36:08;11.60;;;3.60;;
305;SDS011;137;48.578;9.180;2024-01-27T04:38:35;5.30;;;2.33;;
305;SDS011;137;48.578;9.180;2024-01-27T04:41:02;2.90;;;2.03;;
305;SDS011;137;48.578;9.180;2024-01-27T04:43:30;3.23;;;2.13;;
305;SDS011;137;48.578;9.180;2024-01-27T04:45:57;3.87;;;1.93;;
305;SDS011;137;48.578;9.180;2024-01-27T04:48:24;7.77;;;2.33;;
305;SDS011;137;48.578;9.180;2024-01-27T04:50:50;5.63;;;2.30;;
305;SDS011;137;48.578;9.180;2024-01-27T04:53:17;2.60;;;2.40;;
305;SDS011;137;48.578;9.180;2024-01-27T04:55:44;6.20;;;2.20;;
305;SDS011;137;48.578;9.180;2024-01-27T04:58:11;2.90;;;2.60;;
305;SDS011;137;48.578;9.180;2024-01-27T05:00:39;4.93;;;2.40;;
305;SDS011;137;48.578;9.180;2024-01-27T05:03:05;2.67;;;2.33;;
305;SDS011;137;48.578;9.180;2024-01-27T05:05:40;5.10;;;2.43;;
305;SDS011;137;48.578;9.180;2024-01-27T05:08:07;3.43;;;3.13;;
305;SDS011;137;48.578;9.180;2024-01-27T05:10:34;4.10;;;2.13;;
305;SDS011;137;48.578;9.180;2024-01-27T05:13:01;4.10;;;2.70;;
305;SDS011;137;48.578;9.180;2024-01-27T05:15:28;4.43;;;2.60;;
305;SDS011;137;48.578;9.180;2024-01-27T05:17:56;3.50;;;2.47;;
305;SDS011;137;48.578;9.180;2024-01-27T05:20:22;3.20;;;2.90;;
305;SDS011;137;48.578;9.180;2024-01-27T05:22:49;4.40;;;2.20;;
305;SDS011;137;48.578;9.180;2024-01-27T05:25:16;8.20;;;3.10;;
305;SDS011;137;48.578;9.180;2024-01-27T05:27:42;5.60;;;3.37;;
305;SDS011;137;48.578;9.180;2024-01-27T05:30:09;5.90;;;3.10;;
305;SDS011;137;48.578;9.180;2024-01-27T05:32:36;3.33;;;2.60;;
305;SDS011;137;48.578;9.180;2024-01-27T05:35:05;4.23;;;2.80;;
305;SDS011;137;48.578;9.180;2024-01-27T05:37:33;8.50;;;4.30;;
305;SDS011;137;48.578;9.180;2024-01-27T05:40:00;4.90;;;3.47;;
305;SDS011;137;48.578;9.180;2024-01-27T05:42:27;4.17;;;3.20;;
305;SDS011;137;48.578;9.180;2024-01-27T05:44:54;4.70;;;3.23;;
305;SDS011;137;48.578;9.180;2024-01-27T05:47:20;4.00;;;2.87;;
305;SDS011;137;48.578;9.180;2024-01-27T05:49:47;8.30;;;3.93;;
305;SDS011;137;48.578;9.180;2024-01-27T05:52:15;7.20;;;3.80;;
305;SDS011;137;48.578;9.180;2024-01-27T05:54:42;7.50;;;3.50;;
305;SDS011;137;48.578;9.180;2024-01-27T05:57:09;4.03;;;2.70;;
305;SDS011;137;48.578;9.180;2024-01-27T05:59:35;8.20;;;4.10;;
305;SDS011;137;48.578;9.180;2024-01-27T06:02:02;5.47;;;3.80;;
305;SDS011;137;48.578;9.180;2024-01-27T06:04:29;10.53;;;3.90;;
305;SDS011;137;48.578;9.180;2024-01-27T06:06:56;5.40;;;3.80;;
305;SDS011;137;48.578;9.180;2024-01-27T06:09:24;5.37;;;3.30;;
305;SDS011;137;48.578;9.180;2024-01-27T06:11:51;6.77;;;2.90;;
305;SDS011;137;48.578;9.180;2024-01-27T06:14:18;5.67;;;3.20;;
305;SDS011;137;48.578;9.180;2024-01-27T06:16:44;4.97;;;3.20;;
305;SDS011;137;48.578;9.180;2024-01-27T06:19:11;4.93;;;2.93;;
305;SDS011;137;48.578;9.180;2024-01-27T06:21:38;7.47;;;3.63;;
305;SDS011;137;48.578;9.180;2024-01-27T06:24:05;5.57;;;4.67;;
305;SDS011;137;48.578;9.180;2024-01-27T06:26:33;5.70;;;4.30;;
305;SDS011;137;48.578;9.180;2024-01-27T06:28:59;6.87;;;4.90;;
305;SDS011;137;48.578;9.180;2024-01-27T06:31:27;7.03;;;5.10;;
305;SDS011;137;48.578;9.180;2024-01-27T06:33:54;7.93;;;6.10;;
305;SDS011;137;48.578;9.180;2024-01-27T06:36:21;12.50;;;5.03;;
305;SDS011;137;48.578;9.180;2024-01-27T06:38:49;12.53;;;5.10;;
305;SDS011;137;48.578;9.180;2024-01-27T06:41:16;9.77;;;4.77;;
305;SDS011;137;48.578;9.180;2024-01-27T06:43:44;5.40;;;4.40;;
305;SDS011;137;48.578;9.180;2024-01-27T06:46:11;5.57;;;4.20;;
305;SDS011;137;48.578;9.180;2024-01-27T06:48:38;5.33;;;4.80;;
305;SDS011;137;48.578;9.180;2024-01-27T06:51:05;6.07;;;4.43;;
305;SDS011;137;48.578;9.180;2024-01-27T06:53:32;5.30;;;4.80;;
305;SDS011;137;48.578;9.180;2024-01-27T06:55:58;4.93;;;4.47;;
305;SDS011;137;48.578;9.180;2024-01-27T06:58:25;8.57;;;6.13;;
305;SDS011;137;48.578;9.180;2024-01-27T07:00:53;6.83;;;6.17;;
305;SDS011;137;48.578;9.180;2024-01-27T07:03:20;7.30;;;6.43;;
305;SDS011;137;48.578;9.180;2024-01-27T07:05:47;10.20;;;7.20;;
305;SDS011;137;48.578;9.180;2024-01-27T07:08:14;7.63;;;6.83;;
305;SDS011;137;48.578;9.180;2024-01-27T07:10:41;10.77;;;7.33;;
305;SDS011;137;48.578;9.180;2024-01-27T07:13:08;7.93;;;6.50;;
305;SDS011;137;48.578;9.180;2024-01-27T07:15:35;10.60;;;6.50;;
305;SDS011;137;48.578;9.180;2024-01-27T07:18:04;36.03;;;7.70;;
305;SDS011;137;48.578;9.180;2024-01-27T07:20:32;29.10;;;6.60;;
305;SDS011;137;48.578;9.180;2024-01-27T07:22:59;91.60;;;10.70;;
305;SDS011;137;48.578;9.180;2024-01-27T07:25:26;93.37;;;11.53;;
305;SDS011;137;48.578;9.180;2024-01-27T07:27:54;113.67;;;12.83;;
305;SDS011;137;48.578;9.180;2024-01-27T07:30:21;85.17;;;10.33;;
305;SDS011;137;48.578;9.180;2024-01-27T07:32:48;84.57;;;10.80;;
305;SDS011;137;48.578;9.180;2024-01-27T07:35:16;58.37;;;9.90;;
305;SDS011;137;48.578;9.180;2024-01-27T07:37:43;35.90;;;6.77;;
305;SDS011;137;48.578;9.180;2024-01-27T07:40:10;32.90;;;7.30;;
305;SDS011;137;48.578;9.180;2024-01-27T07:42:37;15.27;;;4.33;;
305;SDS011;137;48.578;9.180;2024-01-27T07:45:04;7.87;;;4.93;;
305;SDS011;137;48.578;9.180;2024-01-27T07:47:32;6.87;;;5.10;;
305;SDS011;137;48.578;9.180;2024-01-27T07:49:58;7.10;;;4.90;;
305;SDS011;137;48.578;9.180;2024-01-27T07:52:26;13.17;;;5.30;;
305;SDS011;137;48.578;9.180;2024-01-27T07:54:53;8.03;;;5.53;;
305;SDS011;137;48.578;9.180;2024-01-27T07:57:20;8.80;;;5.47;;
305;SDS011;137;48.578;9.180;2024-01-27T07:59:47;5.73;;;4.80;;
305;SDS011;137;48.578;9.180;2024-01-27T08:02:14;7.10;;;4.60;;
305;SDS011;137;48.578;9.180;2024-01-27T08:04:40;9.07;;;7.37;;
305;SDS011;137;48.578;9.180;2024-01-27T08:07:07;8.77;;;7.00;;
305;SDS011;137;48.578;9.180;2024-01-27T08:09:36;12.50;;;7.60;;
305;SDS011;137;48.578;9.180;2024-01-27T08:12:04;11.40;;;8.23;;
305;SDS011;137;48.578;9.180;2024-01-27T08:14:31;11.70;;;8.23;;
305;SDS011;137;48.578;9.180;2024-01-27T08:17:00;9.57;;;6.90;;
305;SDS011;137;48.578;9.180;2024-01-27T08:19:28;8.97;;;6.90;;
305;SDS011;137;48.578;9.180;2024-01-27T08:21:55;11.30;;;7.50;;
305;SDS011;137;48.578;9.180;2024-01-27T08:24:21;7.10;;;6.37;;
305;SDS011;137;48.578;9.180;2024-01-27T08:26:50;9.53;;;6.07;;
305;SDS011;137;48.578;9.180;2024-01-27T08:29:17;7.60;;;5.53;;
305;SDS011;137;48.578;9.180;2024-01-27T08:31:43;10.30;;;6.97;;
305;SDS011;137;48.578;9.180;2024-01-27T08:34:10;13.13;;;9.27;;
305;SDS011;137;48.578;9.180;2024-01-27T08:39:09;11.43;;;9.17;;
305;SDS011;137;48.578;9.180;2024-01-27T08:41:37;10.27;;;7.03;;
305;SDS011;137;48.578;9.180;2024-01-27T08:44:05;7.90;;;6.70;;
305;SDS011;137;48.578;9.180;2024-01-27T08:46:32;14.70;;;8.30;;
305;SDS011;137;48.578;9.180;2024-01-27T08:48:58;11.10;;;7.90;;
305;SDS011;137;48.578;9.180;2024-01-27T08:51:25;12.87;;;8.07;;
305;SDS011;137;48.578;9.180;2024-01-27T08:53:52;11.40;;;8.03;;
305;SDS011;137;48.578;9.180;2024-01-27T08:56:19;9.95;;;8.73;;
305;SDS011;137;48.578;9.180;2024-01-27T08:58:45;7.27;;;6.53;;
305;SDS011;137;48.578;9.180;2024-01-27T09:01:15;11.27;;;10.10;;
305;SDS011;137;48.578;9.180;2024-01-27T09:03:42;13.77;;;10.57;;
305;SDS011;137;48.578;9.180;2024-01-27T09:06:09;10.50;;;9.50;;
305;SDS011;137;48.578;9.180;2024-01-27T09:08:36;14.33;;;9.97;;
305;SDS011;137;48.578;9.180;2024-01-27T09:11:03;9.77;;;8.43;;
305;SDS011;137;48.578;9.180;2024-01-27T09:13:30;15.57;;;10.03;;
305;SDS011;137;48.578;9.180;2024-01-27T09:15:57;9.90;;;8.40;;
305;SDS011;137;48.578;9.180;2024-01-27T09:18:25;8.53;;;7.37;;
305;SDS011;137;48.578;9.180;2024-01-27T09:20:52;8.77;;;6.90;;
305;SDS011;137;48.578;9.180;2024-01-27T09:23:19;7.30;;;6.33;;
305;SDS011;137;48.578;9.180;2024-01-27T09:25:46;6.27;;;5.77;;
305;SDS011;137;48.578;9.180;2024-01-27T09:28:13;6.77;;;6.10;;
305;SDS011;137;48.578;9.180;2024-01-27T09:30:41;7.37;;;6.60;;
305;SDS011;137;48.578;9.180;2024-01-27T09:33:07;7.37;;;6.57;;
305;SDS011;137;48.578;9.180;2024-01-27T09:35:38;5.47;;;4.97;;
305;SDS011;137;48.578;9.180;2024-01-27T09:38:05;6.47;;;5.80;;
305;SDS011;137;48.578;9.180;2024-01-27T09:40:33;5.80;;;5.17;;
305;SDS011;137;48.578;9.180;2024-01-27T09:42:59;5.97;;;5.33;;
305;SDS011;137;48.578;9.180;2024-01-27T09:45:26;5.87;;;5.30;;
305;SDS011;137;48.578;9.180;2024-01-27T09:47:53;8.63;;;6.37;;
305;SDS011;137;48.578;9.180;2024-01-27T09:50:22;6.47;;;5.83;;
305;SDS011;137;48.578;9.180;2024-01-27T09:52:50;6.33;;;5.73;;
305;SDS011;137;48.578;9.180;2024-01-27T09:55:17;11.00;;;6.70;;
305;SDS011;137;48.578;9.180;2024-01-27T09:57:44;9.03;;;7.27;;
305;SDS011;137;48.578;9.180;2024-01-27T10:00:11;8.27;;;7.43;;
305;SDS011;137;48.578;9.180;2024-01-27T10:02:41;10.57;;;7.03;;
305;SDS011;137;48.578;9.180;2024-01-27T10:05:10;5.27;;;4.77;;
305;SDS011;137;48.578;9.180;2024-01-27T10:07:39;8.33;;;7.10;;
305;SDS011;137;48.578;9.180;2024-01-27T10:10:08;9.77;;;6.80;;
305;SDS011;137;48.578;9.180;2024-01-27T10:12:35;7.53;;;6.73;;
305;SDS011;137;48.578;9.180;2024-01-27T10:15:06;8.17;;;6.17;;
305;SDS011;137;48.578;9.180;2024-01-27T10:17:44;8.13;;;6.23;;
305;SDS011;137;48.578;9.180;2024-01-27T10:20:11;10.40;;;7.00;;
305;SDS011;137;48.578;9.180;2024-01-27T10:22:40;8.20;;;6.13;;
305;SDS011;137;48.578;9.180;2024-01-27T10:25:09;7.20;;;6.40;;
305;SDS011;137;48.578;9.180;2024-01-27T10:27:36;14.00;;;8.13;;
305;SDS011;137;48.578;9.180;2024-01-27T10:30:04;15.47;;;10.00;;
305;SDS011;137;48.578;9.180;2024-01-27T10:32:32;7.77;;;6.53;;
305;SDS011;137;48.578;9.180;2024-01-27T10:35:02;9.60;;;6.33;;
305;SDS011;137;48.578;9.180;2024-01-27T10:37:29;6.80;;;5.00;;
305;SDS011;137;48.578;9.180;2024-01-27T10:39:59;8.60;;;4.87;;
305;SDS011;137;48.578;9.180;2024-01-27T10:42:29;8.43;;;5.97;;
305;SDS011;137;48.578;9.180;2024-01-27T10:44:57;6.50;;;5.77;;
305;SDS011;137;48.578;9.180;2024-01-27T10:47:25;7.17;;;5.07;;
305;SDS011;137;48.578;9.180;2024-01-27T10:49:54;4.97;;;4.43;;
305;SDS011;137;48.578;9.180;2024-01-27T10:52:21;7.67;;;3.53;;
305;SDS011;137;48.578;9.180;2024-01-27T10:54:54;7.63;;;5.70;;
305;SDS011;137;48.578;9.180;2024-01-27T10:57:24;4.60;;;3.80;;
305;SDS011;137;48.578;9.180;2024-01-27T10:59:54;6.53;;;5.10;;
305;SDS011;137;48.578;9.180;2024-01-27T11:02:22;6.63;;;4.63;;
305;SDS011;137;48.578;9.180;2024-01-27T11:04:49;8.87;;;3.60;;
305;SDS011;137;48.578;9.180;2024-01-27T11:07:18;5.87;;;3.73;;
305;SDS011;137;48.578;9.180;2024-01-27T11:09:47;4.10;;;3.70;;
305;SDS011;137;48.578;9.180;2024-01-27T11:12:16;5.25;;;4.30;;
305;SDS011;137;48.578;9.180;2024-01-27T11:14:44;8.57;;;5.00;;
305;SDS011;137;48.578;9.180;2024-01-27T11:17:13;6.80;;;3.13;;
305;SDS011;137;48.578;9.180;2024-01-27T11:19:40;6.23;;;3.33;;
305;SDS011;137;48.578;9.180;2024-01-27T11:22:07;5.10;;;3.63;;
305;SDS011;137;48.578;9.180;2024-01-27T11:24:32;5.30;;;2.70;;
305;SDS011;137;48.578;9.180;2024-01-27T11:27:00;9.30;;;3.10;;
305;SDS011;137;48.578;9.180;2024-01-27T11:29:27;9.30;;;4.30;;
305;SDS011;137;48.578;9.180;2024-01-27T11:31:57;5.60;;;5.00;;
305;SDS011;137;48.578;9.180;2024-01-27T11:34:27;5.90;;;4.90;;
305;SDS011;137;48.578;9.180;2024-01-27T11:36:54;7.33;;;4.63;;
305;SDS011;137;48.578;9.180;2024-01-27T11:39:25;5.27;;;4.03;;
305;SDS011;137;48.578;9.180;2024-01-27T11:41:52;8.77;;;4.50;;
305;SDS011;137;48.578;9.180;2024-01-27T11:44:19;6.30;;;3.93;;
305;SDS011;137;48.578;9.180;2024-01-27T11:46:46;5.40;;;4.73;;
305;SDS011;137;48.578;9.180;2024-01-27T11:49:14;4.37;;;3.97;;
305;SDS011;137;48.578;9.180;2024-01-27T11:51:43;4.67;;;3.77;;
305;SDS011;137;48.578;9.180;2024-01-27T11:54:10;8.80;;;4.70;;
305;SDS011;137;48.578;9.180;2024-01-27T11:56:38;5.00;;;3.80;;
305;SDS011;137;48.578;9.180;2024-01-27T11:59:04;6.10;;;2.83;;
305;SDS011;137;48.578;9.180;2024-01-27T12:01:31;5.90;;;4.13;;
305;SDS011;137;48.578;9.180;2024-01-27T12:03:58;4.73;;;4.00;;
305;SDS011;137;48.578;9.180;2024-01-27T12:06:25;5.70;;;3.87;;
305;SDS011;137;48.578;9.180;2024-01-27T12:08:54;5.03;;;4.40;;
305;SDS011;137;48.578;9.180;2024-01-27T12:11:22;7.07;;;3.63;;
305;SDS011;137;48.578;9.180;2024-01-27T12:13:49;9.70;;;4.80;;
305;SDS011;137;48.578;9.180;2024-01-27T12:16:16;4.00;;;3.60;;
305;SDS011;137;48.578;9.180;2024-01-27T12:18:43;7.33;;;4.50;;
305;SDS011;137;48.578;9.180;2024-01-27T12:21:09;8.03;;;3.70;;
305;SDS011;137;48.578;9.180;2024-01-27T12:23:36;5.87;;;3.40;;
305;SDS011;137;48.578;9.180;2024-01-27T12:26:18;9.10;;;4.57;;
305;SDS011;137;48.578;9.180;2024-01-27T12:28:46;6.10;;;3.43;;
305;SDS011;137;48.578;9.180;2024-01-27T12:31:13;7.13;;;3.23;;
305;SDS011;137;48.578;9.180;2024-01-27T12:33:47;7.70;;;3.90;;
305;SDS011;137;48.578;9.180;2024-01-27T12:36:14;5.30;;;3.50;;
305;SDS011;137;48.578;9.180;2024-01-27T12:38:46;8.10;;;3.00;;
305;SDS011;137;48.578;9.180;2024-01-27T12:41:13;5.43;;;3.17;;
305;SDS011;137;48.578;9.180;2024-01-27T12:43:42;7.17;;;3.10;;
305;SDS011;137;48.578;9.180;2024-01-27T12:46:08;6.50;;;3.33;;
305;SDS011;137;48.578;9.180;2024-01-27T12:48:36;4.30;;;3.00;;
305;SDS011;137;48.578;9.180;2024-01-27T12:51:04;6.30;;;3.13;;
305;SDS011;137;48.578;9.180;2024-01-27T12:53:30;4.23;;;2.23;;
305;SDS011;137;48.578;9.180;2024-01-27T12:55:57;2.33;;;1.43;;
305;SDS011;137;48.578;9.180;2024-01-27T12:58:24;3.90;;;2.00;;
305;SDS011;137;48.578;9.180;2024-01-27T13:00:52;2.80;;;2.20;;
305;SDS011;137;48.578;9.180;2024-01-27T13:03:19;3.80;;;2.07;;
305;SDS011;137;48.578;9.180;2024-01-27T13:05:46;3.70;;;2.53;;
305;SDS011;137;48.578;9.180;2024-01-27T13:08:13;5.20;;;3.30;;
305;SDS011;137;48.578;9.180;2024-01-27T13:10:40;6.37;;;3.30;;
305;SDS011;137;48.578;9.180;2024-01-27T13:13:06;7.00;;;3.20;;
305;SDS011;137;48.578;9.180;2024-01-27T13:15:33;6.27;;;3.30;;
305;SDS011;137;48.578;9.180;2024-01-27T13:18:01;7.00;;;3.40;;
305;SDS011;137;48.578;9.180;2024-01-27T13:20:28;3.77;;;3.10;;
305;SDS011;137;48.578;9.180;2024-01-27T13:22:55;6.07;;;3.30;;
305;SDS011;137;48.578;9.180;2024-01-27T13:25:22;5.30;;;3.20;;
305;SDS011;137;48.578;9.180;2024-01-27T13:27:48;7.67;;;3.40;;
305;SDS011;137;48.578;9.180;2024-01-27T13:30:15;6.47;;;3.20;;
305;SDS011;137;48.578;9.180;2024-01-27T13:32:42;8.63;;;4.00;;
305;SDS011;137;48.578;9.180;2024-01-27T13:35:10;8.27;;;3.20;;
305;SDS011;137;48.578;9.180;2024-01-27T13:37:37;4.43;;;2.63;;
305;SDS011;137;48.578;9.180;2024-01-27T13:40:05;7.50;;;3.10;;
305;SDS011;137;48.578;9.180;2024-01-27T13:42:34;7.97;;;2.70;;
305;SDS011;137;48.578;9.180;2024-01-27T13:45:01;3.23;;;2.70;;
305;SDS011;137;48.578;9.180;2024-01-27T13:47:29;3.07;;;2.40;;
305;SDS011;137;48.578;9.180;2024-01-27T13:49:56;7.37;;;4.30;;
305;SDS011;137;48.578;9.180;2024-01-27T13:52:25;3.63;;;2.63;;
305;SDS011;137;48.578;9.180;2024-01-27T13:54:51;8.53;;;4.37;;
305;SDS011;137;48.578;9.180;2024-01-27T13:57:18;4.93;;;2.40;;
305;SDS011;137;48.578;9.180;2024-01-27T13:59:45;4.30;;;2.87;;
305;SDS011;137;48.578;9.180;2024-01-27T14:02:12;4.60;;;2.80;;
305;SDS011;137;48.578;9.180;2024-01-27T14:04:39;4.67;;;2.80;;
305;SDS011;137;48.578;9.180;2024-01-27T14:07:05;5.43;;;2.93;;
305;SDS011;137;48.578;9.180;2024-01-27T14:09:35;7.10;;;3.40;;
305;SDS011;137;48.578;9.180;2024-01-27T14:12:03;4.30;;;2.90;;
305;SDS011;137;48.578;9.180;2024-01-27T14:14:31;4.30;;;2.87;;
305;SDS011;137;48.578;9.180;2024-01-27T14:16:57;7.80;;;3.20;;
305;SDS011;137;48.578;9.180;2024-01-27T14:19:24;5.33;;;2.77;;
305;SDS011;137;48.578;9.180;2024-01-27T14:21:51;3.40;;;3.10;;
305;SDS011;137;48.578;9.180;2024-01-27T14:24:18;4.00;;;2.97;;
305;SDS011;137;48.578;9.180;2024-01-27T14:26:46;9.10;;;3.17;;
305;SDS011;137;48.578;9.180;2024-01-27T14:29:13;5.40;;;3.17;;
305;SDS011;137;48.578;9.180;2024-01-27T14:31:42;4.15;;;3.75;;
305;SDS011;137;48.578;9.180;2024-01-27T14:34:08;5.70;;;3.40;;
305;SDS011;137;48.578;9.180;2024-01-27T14:39:06;4.67;;;2.80;;
305;SDS011;137;48.578;9.180;2024-01-27T14:41:35;12.10;;;3.47;;
305;SDS011;137;48.578;9.180;2024-01-27T14:44:04;8.50;;;2.87;;
305;SDS011;137;48.578;9.180;2024-01-27T14:46:31;5.80;;;3.40;;
305;SDS011;137;48.578;9.180;2024-01-27T14:49:03;3.40;;;3.10;;
305;SDS011;137;48.578;9.180;2024-01-27T14:51:30;7.77;;;3.50;;
305;SDS011;137;48.578;9.180;2024-01-27T14:53:57;4.77;;;3.03;;
305;SDS011;137;48.578;9.180;2024-01-27T14:56:28;5.77;;;3.00;;
305;SDS011;137;48.578;9.180;2024-01-27T14:58:55;11.60;;;3.40;;
305;SDS011;137;48.578;9.180;2024-01-27T15:01:23;4.30;;;2.83;;
305;SDS011;137;48.578;9.180;2024-01-27T15:03:52;7.37;;;3.50;;
305;SDS011;137;48.578;9.180;2024-01-27T15:06:18;5.17;;;3.10;;
305;SDS011;137;48.578;9.180;2024-01-27T15:08:45;3.70;;;2.63;;
305;SDS011;137;48.578;9.180;2024-01-27T15:11:12;5.90;;;3.30;;
305;SDS011;137;48.578;9.180;2024-01-27T15:13:39;6.93;;;3.70;;
305;SDS011;137;48.578;9.180;2024-01-27T15:16:06;5.30;;;4.50;;
305;SDS011;137;48.578;9.180;2024-01-27T15:18:34;7.32;;;4.03;;
305;SDS011;137;48.578;9.180;2024-01-27T15:21:05;6.40;;;3.60;;
305;SDS011;137;48.578;9.180;2024-01-27T15:23:32;9.57;;;6.40;;
305;SDS011;137;48.578;9.180;2024-01-27T15:26:00;10.07;;;6.43;;
305;SDS011;137;48.578;9.180;2024-01-27T15:28:28;9.20;;;5.53;;
305;SDS011;137;48.578;9.180;2024-01-27T15:30:56;7.80;;;4.90;;
305;SDS011;137;48.578;9.180;2024-01-27T15:33:22;14.80;;;5.03;;
305;SDS011;137;48.578;9.180;2024-01-27T15:35:51;11.93;;;4.90;;
305;SDS011;137;48.578;9.180;2024-01-27T15:38:18;6.20;;;4.27;;
305;SDS011;137;48.578;9.180;2024-01-27T15:40:44;7.10;;;4.73;;
305;SDS011;137;48.578;9.180;2024-01-27T15:43:11;7.60;;;4.47;;
305;SDS011;137;48.578;9.180;2024-01-27T15:45:38;5.10;;;3.90;;
305;SDS011;137;48.578;9.180;2024-01-27T15:48:05;6.47;;;4.37;;
305;SDS011;137;48.578;9.180;2024-01-27T15:50:32;5.87;;;3.83;;